KBDR/BDR METAR and TAF weather

Enter ICAO airport designator
Station Type Date Time Source
KBDR METAR 2019/04/18 20:52 UTC NOAA

KBDR 182052Z 06015KT 10SM OVC011 10/08 A2998 RMK AO2 RAB1955E05 SLP153 P0000 60003 T01000083 58029


Station Type Date Time Source
KBDR Decoded METAR 2019/04/18 20:52 UTC NOAA

SIKORSKY MEMORIAL AIRPORT, CT, United States (KBDR) 41-10N 073-08W 7M
Apr 18, 2019 - 04:52 PM EDT / 2019.04.18 2052 UTC
Wind: from the ENE (060 degrees) at 17 MPH (15 KT):0
Visibility: 10 mile(s):0
Sky conditions: overcast
Precipitation last hour: A trace
Temperature: 50.0 F (10.0 C)
Dew Point: 46.9 F (8.3 C)
Relative Humidity: 89%
Pressure (altimeter): 29.98 in. Hg (1015 hPa)
Pressure tendency: 0.09 inches (2.9 hPa) lower than three hours ago
ob: KBDR 182052Z 06015KT 10SM OVC011 10/08 A2998 RMK AO2 RAB1955E05 SLP153 P0000 60003 T01000083 58029
cycle: 21

Station Type Date Time Source
KBDR TAF 2019/04/18 19:09 UTC NOAA

TAF
AMD KBDR 181906Z 1819/1918 06013KT P6SM -RA OVC012
TEMPO 1819/1822 2SM -RADZ BR OVC009
FM182200 16012G20KT P6SM SCT009 BKN020
FM190000 17012KT P6SM BKN020 BKN150 WS020/20050KT
FM190900 20012KT P6SM SCT008 BKN040 WS020/20045KT

Example: see airport list